Time;durP1;ratioP1;P1;durP2;ratioP2;P2;SDS_P1;SDS_P2;PMS_P1;PMS_P2;Temp;Humidity;BMP_temperature;BMP_pressure;BME280_temperature;BME280_humidity;BME280_pressure;Samples;Min_cycle;Max_cycle;Signal;HPM_P1;HPM_P2
2023/06/13 00:00:14;;;;;;;3.25;1.92;;;;;;;17.67;41.25;99668.09;7762934;32;40060;-77
2023/06/13 00:04:31;;;;;;;3.55;2.00;;;;;;;17.60;40.67;99663.84;7764033;32;40839;-77
2023/06/13 00:08:48;;;;;;;2.55;1.90;;;;;;;17.47;40.82;99670.28;7763790;32;37844;-77
2023/06/13 00:13:04;;;;;;;4.85;1.90;;;;;;;17.46;41.73;99663.19;7763960;32;37672;-77
2023/06/13 00:17:25;;;;;;;3.10;1.90;;;;;;;17.46;42.31;99657.66;7763533;32;39306;-77
2023/06/13 00:21:41;;;;;;;5.78;2.12;;;;;;;17.50;41.43;99653.13;7763627;32;40108;-77
2023/06/13 00:25:58;;;;;;;6.62;1.65;;;;;;;17.43;41.91;99647.28;7763143;32;38700;-77
2023/06/13 00:30:14;;;;;;;3.70;2.08;;;;;;;17.43;41.37;99652.78;7763065;32;37357;-78
2023/06/13 00:34:31;;;;;;;7.87;1.83;;;;;;;17.30;42.59;99659.22;7763334;32;38996;-78
2023/06/13 00:38:49;;;;;;;3.37;1.80;;;;;;;17.32;42.49;99637.72;7763078;32;40890;-77
2023/06/13 00:43:05;;;;;;;4.53;2.12;;;;;;;17.41;41.29;99635.78;7763023;32;38013;-77
2023/06/13 00:47:22;;;;;;;4.82;2.12;;;;;;;17.44;41.28;99646.16;7762903;32;37929;-77
2023/06/13 00:51:41;;;;;;;2.80;1.90;;;;;;;17.33;42.35;99625.53;7762911;32;39169;-77
2023/06/13 00:55:58;;;;;;;6.30;2.12;;;;;;;17.37;42.52;99624.59;7762612;32;40786;-76
2023/06/13 01:00:15;;;;;;;4.37;1.90;;;;;;;17.35;42.48;99623.28;7762552;32;38685;-77
2023/06/13 01:04:34;;;;;;;4.20;1.92;;;;;;;17.32;42.37;99613.72;7762549;32;37850;-78
2023/06/13 01:08:58;;;;;;;1.58;1.45;;;;;;;17.06;42.71;99616.41;7762335;32;39484;-77
2023/06/13 01:13:33;;;;;;;4.50;2.20;;;;;;;17.09;42.66;99601.97;7752594;32;40875;-77
2023/06/13 01:17:57;;;;;;;3.55;2.00;;;;;;;16.86;42.71;99596.56;7752878;32;37918;-77
2023/06/13 01:22:16;;;;;;;2.53;1.70;;;;;;;16.95;43.08;99598.53;7766404;32;37128;-77
2023/06/13 01:26:56;;;;;;;2.40;1.90;;;;;;;17.09;42.73;99604.72;7766368;32;39877;-77
2023/06/13 01:31:16;;;;;;;3.75;2.05;;;;;;;16.97;42.90;99599.03;7753502;32;40739;-78
2023/06/13 01:35:33;;;;;;;7.82;2.10;;;;;;;17.06;43.17;99594.38;7752064;32;38684;-78
2023/06/13 01:39:49;;;;;;;3.65;1.80;;;;;;;17.07;43.18;99595.97;7752229;32;37950;-78
2023/06/13 01:44:07;;;;;;;5.43;2.00;;;;;;;16.85;43.66;99588.63;7766032;32;39301;-77
2023/06/13 01:48:34;;;;;;;2.72;1.90;;;;;;;16.76;43.52;99596.81;7752037;32;39948;-77
2023/06/13 01:53:06;;;;;;;4.45;1.87;;;;;;;16.85;42.15;99592.22;7753063;32;37652;-78
2023/06/13 01:57:26;;;;;;;4.75;2.05;;;;;;;16.78;42.99;99589.09;7765643;32;38496;-77
2023/06/13 02:01:43;;;;;;;4.22;1.80;;;;;;;16.61;42.99;99586.22;7765907;32;39054;-77
2023/06/13 02:06:00;;;;;;;2.87;2.00;;;;;;;16.46;43.53;99582.78;7765670;32;39948;-77
2023/06/13 02:10:16;;;;;;;4.97;1.98;;;;;;;16.38;43.54;99583.53;7765231;32;39205;-78
2023/06/13 02:14:33;;;;;;;3.35;1.90;;;;;;;16.13;44.69;99585.81;7751891;32;36732;-76
2023/06/13 02:18:49;;;;;;;3.95;1.87;;;;;;;16.41;43.44;99579.34;7765357;32;39408;-79
2023/06/13 02:23:06;;;;;;;4.72;1.92;;;;;;;16.09;43.93;99576.59;7764692;32;40809;-77
2023/06/13 02:27:22;;;;;;;3.42;1.95;;;;;;;16.10;43.58;99569.94;7765385;32;37889;-78
2023/06/13 02:31:40;;;;;;;3.95;1.75;;;;;;;15.99;44.02;99579.59;7765225;32;37652;-78
2023/06/13 02:35:57;;;;;;;6.32;2.30;;;;;;;16.04;44.19;99570.38;7751338;32;40463;-77
2023/06/13 02:40:13;;;;;;;2.67;1.67;;;;;;;16.12;43.92;99578.69;7765346;32;39985;-77
2023/06/13 02:44:30;;;;;;;2.95;1.95;;;;;;;16.06;44.23;99573.66;7765195;32;38746;-77
2023/06/13 02:48:47;;;;;;;4.15;1.90;;;;;;;16.13;44.39;99572.06;7765187;32;36761;-77
2023/06/13 02:53:03;;;;;;;5.32;2.72;;;;;;;16.04;44.78;99578.62;7751392;32;39530;-77
2023/06/13 02:57:20;;;;;;;7.00;2.00;;;;;;;16.14;44.52;99564.63;7764458;32;40786;-77
2023/06/13 03:01:36;;;;;;;3.30;2.00;;;;;;;16.18;44.82;99564.81;7764929;32;37453;-78
2023/06/13 03:05:59;;;;;;;4.28;1.85;;;;;;;16.18;45.08;99562.06;7765055;32;37176;-77
2023/06/13 03:10:16;;;;;;;3.00;1.98;;;;;;;15.98;45.39;99571.66;7765087;32;39377;-77
2023/06/13 03:14:33;;;;;;;3.33;1.87;;;;;;;16.02;45.54;99567.94;7765004;32;39734;-77
2023/06/13 03:18:50;;;;;;;4.78;2.10;;;;;;;16.18;45.39;99562.91;7765006;32;38712;-77
2023/06/13 03:23:06;;;;;;;6.53;2.00;;;;;;;15.83;46.48;99572.84;7764898;32;37366;-78
2023/06/13 03:27:22;;;;;;;5.53;2.03;;;;;;;15.71;46.69;99579.69;7764861;32;39110;-77
2023/06/13 03:31:39;;;;;;;11.23;2.35;;;;;;;15.85;47.27;99584.31;7764562;32;40775;-77
2023/06/13 03:35:55;;;;;;;4.07;2.10;;;;;;;15.89;47.34;99586.16;7764485;32;38758;-77
2023/06/13 03:40:14;;;;;;;4.32;1.85;;;;;;;15.93;47.53;99578.09;7764648;32;36407;-78
2023/06/13 03:44:31;;;;;;;2.55;1.92;;;;;;;15.82;48.73;99576.72;7764636;32;39954;-78
2023/06/13 03:48:49;;;;;;;5.62;2.10;;;;;;;15.97;48.47;99581.84;7763948;32;39990;-76
2023/06/13 03:53:06;;;;;;;5.00;2.05;;;;;;;15.83;49.47;99581.09;7764312;32;37268;-78
2023/06/13 03:57:22;;;;;;;5.62;2.30;;;;;;;15.88;50.13;99584.50;7763953;32;36872;-78
2023/06/13 04:01:41;;;;;;;4.68;2.10;;;;;;;15.90;50.94;99582.28;7764076;32;39872;-77
2023/06/13 04:05:57;;;;;;;2.60;1.83;;;;;;;15.97;51.17;99581.84;7764123;32;40203;-77
2023/06/13 04:10:13;;;;;;;3.45;2.03;;;;;;;15.90;51.56;99589.69;7763826;32;37949;-77
2023/06/13 04:14:30;;;;;;;3.00;2.00;;;;;;;15.98;50.83;99591.72;7750176;32;37142;-77
2023/06/13 04:18:47;;;;;;;4.03;2.08;;;;;;;16.02;49.68;99587.19;7763790;32;39242;-77
2023/06/13 04:23:03;;;;;;;3.53;1.90;;;;;;;16.03;49.83;99594.34;7763651;32;40067;-77
2023/06/13 04:27:24;;;;;;;4.05;2.10;;;;;;;16.14;50.17;99587.47;7763403;32;37979;-76
2023/06/13 04:31:41;;;;;;;4.18;2.00;;;;;;;16.01;51.33;99588.34;7763266;32;37778;-77
2023/06/13 04:36:03;;;;;;;3.75;1.70;;;;;;;16.29;50.43;99585.44;7763340;32;40066;-77
2023/06/13 04:40:20;;;;;;;4.32;1.90;;;;;;;16.36;50.11;99583.03;7763246;32;40840;-77
2023/06/13 04:44:37;;;;;;;3.37;1.92;;;;;;;16.34;49.64;99585.31;7762446;32;37832;-78
2023/06/13 04:48:54;;;;;;;10.38;2.08;;;;;;;16.62;50.65;99579.59;7766556;32;38114;-78
2023/06/13 04:53:11;;;;;;;3.50;2.10;;;;;;;16.73;50.48;99585.62;7766633;32;39375;-78
2023/06/13 04:57:28;;;;;;;3.83;2.30;;;;;;;16.75;49.34;99589.72;7766542;32;40929;-77
2023/06/13 05:01:47;;;;;;;7.80;1.80;;;;;;;16.77;48.00;99587.44;7766580;32;38478;-77
2023/06/13 05:06:04;;;;;;;3.87;1.98;;;;;;;16.97;47.98;99590.78;7766498;32;36965;-78
2023/06/13 05:10:24;;;;;;;3.25;2.08;;;;;;;16.97;49.17;99590.78;7766460;32;40101;-76
2023/06/13 05:14:41;;;;;;;4.75;2.10;;;;;;;17.19;49.16;99589.84;7766469;32;40548;-77
2023/06/13 05:19:00;;;;;;;5.28;2.20;;;;;;;17.23;47.86;99586.16;7766216;32;38784;-77
2023/06/13 05:23:16;;;;;;;5.87;2.00;;;;;;;17.49;47.11;99590.06;7752794;32;38311;-78
2023/06/13 05:27:32;;;;;;;3.15;2.08;;;;;;;17.66;46.40;99576.31;7745461;32;39928;-72
2023/06/13 05:31:49;;;;;;;4.45;2.10;;;;;;;17.74;47.84;99581.00;7738968;32;39899;-72
2023/06/13 05:36:06;;;;;;;6.68;2.15;;;;;;;17.96;46.32;99574.53;7754089;32;38660;-73
2023/06/13 05:40:22;;;;;;;3.55;2.08;;;;;;;18.09;43.94;99572.72;7765181;32;37779;-72
2023/06/13 05:44:38;;;;;;;9.93;2.30;;;;;;;18.31;43.19;99571.69;7766182;32;39186;-80
2023/06/13 05:48:55;;;;;;;6.22;2.20;;;;;;;18.01;43.75;99579.06;7765592;32;40607;-81
2023/06/13 05:53:11;;;;;;;2.30;1.80;;;;;;;18.41;41.91;99576.03;7765373;32;38644;-82
2023/06/13 05:58:00;;;;;;;2.97;1.98;;;;;;;18.31;41.44;99577.19;7764431;32;37250;-80
2023/06/13 06:02:16;;;;;;;3.22;2.08;;;;;;;17.59;41.45;99574.03;7717384;32;39877;-83
2023/06/13 06:06:34;;;;;;;4.47;1.60;;;;;;;17.90;40.98;99580.53;7751955;32;39910;-82
2023/06/13 06:10:50;;;;;;;4.97;2.10;;;;;;;18.09;39.88;99591.22;7765147;32;38648;-79
2023/06/13 06:15:07;;;;;;;5.60;2.10;;;;;;;18.10;39.83;99593.66;7765753;32;37836;-79
2023/06/13 06:19:24;;;;;;;4.45;1.95;;;;;;;18.45;39.68;99584.47;7766787;32;40139;-80
2023/06/13 06:23:42;;;;;;;6.57;1.92;;;;;;;18.30;39.31;99581.13;7764790;32;41494;-78
2023/06/13 06:28:01;;;;;;;4.62;1.95;;;;;;;18.13;39.46;99583.91;7764700;32;37872;-76
2023/06/13 06:32:17;;;;;;;4.28;1.85;;;;;;;18.61;38.27;99585.56;7764925;32;36481;-80
2023/06/13 06:36:33;;;;;;;3.10;1.95;;;;;;;18.72;37.70;99584.03;7764759;32;38824;-79
2023/06/13 06:40:50;;;;;;;5.40;1.95;;;;;;;18.60;36.81;99586.69;7761058;32;40726;-80
2023/06/13 06:45:09;;;;;;;7.05;2.12;;;;;;;19.06;36.41;99581.50;7761116;32;38740;-79
2023/06/13 06:49:26;;;;;;;7.28;1.90;;;;;;;19.22;33.66;99581.72;7740213;32;37759;-80
2023/06/13 06:53:44;;;;;;;5.30;1.73;;;;;;;18.83;34.65;99575.44;7764507;32;39453;-79
2023/06/13 06:58:00;;;;;;;6.47;2.00;;;;;;;19.07;35.19;99580.34;7764639;32;40797;-81
2023/06/13 07:02:16;;;;;;;3.05;1.80;;;;;;;18.89;36.20;99585.16;7762201;32;38725;-79
2023/06/13 07:06:32;;;;;;;3.78;1.90;;;;;;;18.29;37.08;99571.22;7761931;32;37635;-80
2023/06/13 07:10:49;;;;;;;4.47;1.90;;;;;;;18.61;37.94;99566.25;7762436;32;39167;-80
2023/06/13 07:15:08;;;;;;;3.15;1.95;;;;;;;18.82;35.98;99573.78;7748896;32;40037;-79
2023/06/13 07:19:24;;;;;;;6.97;2.20;;;;;;;18.65;37.03;99575.47;7763576;32;38126;-80
2023/06/13 07:23:40;;;;;;;3.75;1.90;;;;;;;18.61;35.97;99579.22;7762994;32;36974;-74
2023/06/13 07:28:12;;;;;;;13.40;2.53;;;;;;;18.92;37.67;99578.94;7752465;32;40037;-81
2023/06/13 07:32:28;;;;;;;5.43;2.25;;;;;;;19.53;39.13;99564.75;7763013;32;39957;-79
2023/06/13 07:36:44;;;;;;;3.05;1.85;;;;;;;19.23;37.12;99562.03;7762731;32;38659;-79
2023/06/13 07:41:01;;;;;;;6.85;2.20;;;;;;;19.62;38.63;99542.56;7762545;32;36898;-80
2023/06/13 07:45:17;;;;;;;4.00;2.22;;;;;;;19.87;38.32;99541.53;7763593;32;40486;-80
2023/06/13 07:49:34;;;;;;;2.17;1.60;;;;;;;20.43;38.80;99529.22;7763203;32;39987;-80
2023/06/13 07:53:50;;;;;;;4.35;2.00;;;;;;;20.32;35.83;99530.84;7763137;32;38855;-80
2023/06/13 07:58:07;;;;;;;3.55;1.90;;;;;;;20.20;36.83;99526.88;7763887;32;37805;-80
2023/06/13 08:02:26;;;;;;;3.65;2.03;;;;;;;20.58;36.06;99520.22;7763358;32;40146;-79
2023/06/13 08:06:42;;;;;;;4.05;1.80;;;;;;;20.48;38.83;99515.16;7763220;32;40932;-80
2023/06/13 08:10:59;;;;;;;4.05;2.00;;;;;;;20.45;36.28;99521.37;7763964;32;38512;-81
2023/06/13 08:15:15;;;;;;;2.75;1.75;;;;;;;20.62;35.72;99521.19;7763578;32;37134;-80
2023/06/13 08:19:32;;;;;;;4.87;1.98;;;;;;;20.60;36.76;99520.69;7763269;32;40040;-76
2023/06/13 08:23:48;;;;;;;5.32;1.98;;;;;;;21.01;35.55;99521.63;7765698;32;39913;-80
2023/06/13 08:28:06;;;;;;;4.60;2.20;;;;;;;21.12;34.49;99510.06;7752618;32;37753;-79
2023/06/13 08:32:24;;;;;;;4.37;1.90;;;;;;;21.60;34.32;99507.53;7765757;32;37887;-80
2023/06/13 08:36:41;;;;;;;3.53;1.80;;;;;;;21.36;34.37;99521.09;7739379;32;38706;-79
2023/06/13 08:40:57;;;;;;;3.10;1.83;;;;;;;21.47;34.15;99510.34;7737933;32;40573;-79
2023/06/13 08:45:15;;;;;;;4.07;2.17;;;;;;;21.57;32.32;99514.56;7724171;32;38001;-79
2023/06/13 08:49:32;;;;;;;5.25;1.80;;;;;;;21.35;34.23;99502.03;7737949;32;37556;-79
2023/06/13 08:53:51;;;;;;;3.67;1.67;;;;;;;21.59;34.42;99495.59;7739338;32;38890;-78
2023/06/13 08:58:13;;;;;;;4.20;2.10;;;;;;;21.98;33.92;99511.75;7736949;32;40864;-79
2023/06/13 09:02:31;;;;;;;4.00;1.70;;;;;;;21.79;33.53;99504.09;7736324;32;37932;-79
2023/06/13 09:06:48;;;;;;;4.75;1.75;;;;;;;22.20;34.93;99513.91;7723283;32;36863;-79
2023/06/13 09:11:04;;;;;;;3.30;2.50;;;;;;;22.03;31.84;99505.94;7738205;32;40184;-78
2023/06/13 09:15:23;;;;;;;2.80;1.92;;;;;;;21.85;32.59;99513.75;7739501;32;39918;-79
2023/06/13 09:19:44;;;;;;;6.50;1.83;;;;;;;21.82;33.44;99514.47;7726111;32;38658;-79
2023/06/13 09:24:01;;;;;;;7.03;1.95;;;;;;;20.71;33.54;99520.25;7739516;32;37002;-80
2023/06/13 09:28:47;;;;;;;4.60;1.90;;;;;;;21.27;32.99;99520.44;7725674;32;40064;-79
2023/06/13 09:33:04;;;;;;;5.10;1.90;;;;;;;21.98;33.36;99507.00;7699552;32;40813;-80
2023/06/13 09:37:24;;;;;;;2.87;1.62;;;;;;;21.84;30.83;99498.28;7698830;32;37966;-79
2023/06/13 09:41:41;;;;;;;2.87;1.85;;;;;;;21.97;31.13;99502.59;7712433;32;37176;-80
2023/06/13 09:45:58;;;;;;;4.53;1.80;;;;;;;21.47;32.90;99503.97;7712374;32;39296;-79
2023/06/13 09:50:16;;;;;;;6.35;1.85;;;;;;;21.20;32.74;99500.81;7698530;32;40819;-79
2023/06/13 09:54:32;;;;;;;4.55;2.25;;;;;;;21.56;32.73;99494.38;7712535;32;36595;-80
2023/06/13 09:58:53;;;;;;;5.28;1.90;;;;;;;21.38;32.43;99491.03;7712453;32;36071;-79
2023/06/13 10:03:09;;;;;;;3.35;1.65;;;;;;;22.09;32.98;99497.00;7712161;32;39714;-79
2023/06/13 10:07:36;;;;;;;2.30;1.55;;;;;;;22.68;34.94;99494.50;7712083;32;39937;-80
2023/06/13 10:11:53;;;;;;;4.37;1.80;;;;;;;22.84;30.11;99498.06;7712775;32;38000;-80
2023/06/13 10:16:12;;;;;;;7.75;2.30;;;;;;;22.49;32.40;99501.59;7736666;32;37962;-80
2023/06/13 10:20:29;;;;;;;3.45;1.90;;;;;;;22.59;32.33;99502.22;7717192;32;40604;-79
2023/06/13 10:24:50;;;;;;;3.30;1.80;;;;;;;22.09;30.21;99494.22;7736340;32;39927;-80
2023/06/13 10:29:31;;;;;;;6.00;2.00;;;;;;;22.12;31.38;99485.16;7738177;32;38664;-79
2023/06/13 10:34:25;;;;;;;3.83;1.85;;;;;;;22.45;30.76;99486.78;7759440;32;37343;-77
2023/06/13 10:39:17;;;;;;;3.50;1.80;;;;;;;23.36;30.67;99482.13;7765684;32;39357;-76
2023/06/13 10:43:52;;;;;;;3.70;1.80;;;;;;;22.78;28.59;99471.69;7764650;32;39892;-80
2023/06/13 10:48:08;;;;;;;2.62;1.60;;;;;;;23.35;30.12;99474.16;7764765;32;38492;-79
2023/06/13 10:52:25;;;;;;;6.03;1.95;;;;;;;22.94;28.09;99479.19;7765368;32;37006;-81
2023/06/13 10:56:44;;;;;;;7.05;2.10;;;;;;;23.36;28.21;99478.56;7765503;32;39402;-79
2023/06/13 11:01:25;;;;;;;2.53;1.70;;;;;;;23.48;28.46;99464.50;7764933;32;39924;-80
2023/06/13 11:05:44;;;;;;;4.40;2.08;;;;;;;24.29;31.80;99451.69;7765179;32;38157;-79
2023/06/13 11:10:19;;;;;;;3.10;1.80;;;;;;;23.95;27.54;99454.28;7765196;32;37887;-79
2023/06/13 11:14:39;;;;;;;3.53;2.05;;;;;;;23.54;29.14;99451.91;7752861;32;39295;-81
2023/06/13 11:18:55;;;;;;;3.22;1.50;;;;;;;23.29;29.63;99456.97;7751248;32;39951;-80
2023/06/13 11:23:13;;;;;;;4.82;2.15;;;;;;;23.58;28.07;99447.22;7765059;32;38724;-80
2023/06/13 11:27:30;;;;;;;3.60;1.70;;;;;;;24.13;27.32;99457.38;7751305;32;37320;-80
2023/06/13 11:31:50;;;;;;;3.60;1.73;;;;;;;24.29;28.39;99441.34;7764723;32;40055;-80
2023/06/13 11:36:07;;;;;;;4.15;1.90;;;;;;;24.34;25.96;99427.09;7764863;32;40650;-79
2023/06/13 11:40:30;;;;;;;2.17;1.40;;;;;;;25.02;25.54;99430.06;7750969;32;38730;-79
2023/06/13 11:44:47;;;;;;;3.65;2.10;;;;;;;24.83;27.76;99419.06;7751617;32;37699;-80
2023/06/13 11:49:03;;;;;;;3.97;1.90;;;;;;;24.89;27.09;99428.72;7764785;32;40136;-80
2023/06/13 11:53:20;;;;;;;4.00;1.95;;;;;;;24.75;28.39;99426.53;7764497;32;39926;-79
2023/06/13 11:57:47;;;;;;;3.72;1.92;;;;;;;24.22;27.37;99430.09;7764271;32;38017;-80
2023/06/13 12:02:04;;;;;;;4.30;2.12;;;;;;;25.10;29.30;99428.19;7764406;32;37375;-79
2023/06/13 12:06:21;;;;;;;2.87;1.90;;;;;;;25.23;27.81;99426.78;7764325;32;40071;-80
2023/06/13 12:10:37;;;;;;;5.53;2.00;;;;;;;25.14;27.35;99417.09;7764091;32;39916;-79
2023/06/13 12:14:54;;;;;;;3.03;1.85;;;;;;;24.87;28.17;99419.91;7764062;32;37877;-79
2023/06/13 12:19:10;;;;;;;2.87;1.40;;;;;;;25.48;26.51;99403.97;7764024;32;37880;-80
2023/06/13 12:23:27;;;;;;;2.15;1.70;;;;;;;24.76;25.82;99405.03;7763845;32;39902;-81
2023/06/13 12:27:44;;;;;;;9.40;2.10;;;;;;;25.78;24.91;99401.06;7763772;32;40016;-80
2023/06/13 12:32:05;;;;;;;4.18;1.77;;;;;;;25.52;26.28;99401.22;7763311;32;38665;-79
2023/06/13 12:36:28;;;;;;;5.85;1.90;;;;;;;25.32;26.25;99401.41;7763687;32;37792;-79
2023/06/13 12:40:46;;;;;;;4.87;2.00;;;;;;;25.73;25.07;99395.03;7763443;32;40109;-79
2023/06/13 12:45:03;;;;;;;2.65;1.70;;;;;;;25.42;25.37;99389.56;7763322;32;39952;-80
2023/06/13 12:49:20;;;;;;;6.18;1.83;;;;;;;25.41;26.30;99399.09;7763129;32;38713;-79
2023/06/13 12:53:37;;;;;;;5.07;1.70;;;;;;;25.35;25.31;99395.03;7763118;32;37062;-80
2023/06/13 12:57:53;;;;;;;5.65;1.65;;;;;;;25.59;27.26;99390.13;7763146;32;40311;-80
2023/06/13 13:02:15;;;;;;;4.70;1.95;;;;;;;25.64;23.99;99384.97;7762946;32;40799;-80
2023/06/13 13:06:31;;;;;;;5.40;1.87;;;;;;;25.70;24.07;99376.25;7763568;32;38099;-79
2023/06/13 13:10:49;;;;;;;6.20;1.90;;;;;;;26.18;23.97;99379.09;7766545;32;37101;-80
2023/06/13 13:15:06;;;;;;;2.87;1.60;;;;;;;25.67;25.33;99383.44;7752767;32;39334;-80
2023/06/13 13:19:23;;;;;;;5.28;1.80;;;;;;;26.16;23.92;99379.47;7766526;32;40588;-79
2023/06/13 13:23:39;;;;;;;6.72;2.20;;;;;;;26.41;25.08;99376.87;7751913;32;38076;-80
2023/06/13 13:27:56;;;;;;;4.57;1.60;;;;;;;26.29;23.45;99373.63;7766402;32;36657;-80
2023/06/13 13:32:12;;;;;;;10.70;2.00;;;;;;;27.06;24.23;99371.66;7766078;32;39389;-80
2023/06/13 13:36:29;;;;;;;5.75;2.15;;;;;;;27.10;25.91;99366.88;7766260;32;39785;-80
2023/06/13 13:40:45;;;;;;;3.03;1.77;;;;;;;26.65;22.52;99369.06;7765435;32;37967;-79
2023/06/13 13:45:05;;;;;;;3.95;2.10;;;;;;;26.43;23.16;99370.91;7766245;32;36993;-78
2023/06/13 13:49:21;;;;;;;3.75;2.00;;;;;;;26.97;23.34;99358.03;7766236;32;40220;-77
2023/06/13 13:53:38;;;;;;;4.53;1.60;;;;;;;26.80;24.89;99367.13;7764798;32;40040;-75
2023/06/13 13:57:55;;;;;;;3.25;1.98;;;;;;;27.66;23.54;99358.22;7765922;32;37560;-77
2023/06/13 14:02:11;;;;;;;3.45;1.77;;;;;;;27.11;23.93;99367.66;7764987;32;37599;-78
2023/06/13 14:06:27;;;;;;;5.03;1.80;;;;;;;27.35;22.87;99353.00;7763815;32;39498;-77
2023/06/13 14:10:44;;;;;;;6.07;2.25;;;;;;;26.69;21.39;99346.72;7762630;32;39979;-77
2023/06/13 14:15:00;;;;;;;3.03;1.75;;;;;;;26.70;23.41;99353.91;7762721;32;37751;-76
2023/06/13 14:19:17;;;;;;;10.82;2.05;;;;;;;26.81;21.32;99338.00;7747873;32;37663;-77
2023/06/13 14:23:33;;;;;;;4.32;2.03;;;;;;;27.26;22.18;99335.72;7761682;32;39311;-79
2023/06/13 14:27:49;;;;;;;3.37;1.60;;;;;;;27.04;23.57;99334.06;7748242;32;40826;-78
2023/06/13 14:32:06;;;;;;;2.53;1.70;;;;;;;27.01;20.86;99334.84;7756398;32;186803;-78
2023/06/13 14:36:22;;;;;;;4.43;2.05;;;;;;;26.39;21.31;99331.75;7762053;32;38289;-78
2023/06/13 14:40:39;;;;;;;7.50;2.03;;;;;;;26.37;21.82;99336.94;7762782;32;40069;-77
2023/06/13 14:44:55;;;;;;;5.03;2.00;;;;;;;27.06;22.45;99326.09;7762644;32;40798;-78
2023/06/13 14:49:11;;;;;;;1.92;1.55;;;;;;;26.62;22.09;99330.72;7762234;32;38641;-78
2023/06/13 14:53:28;;;;;;;5.35;1.67;;;;;;;26.83;22.17;99324.41;7761900;32;37360;-77
2023/06/13 14:57:45;;;;;;;3.00;1.67;;;;;;;27.61;21.38;99311.81;7761702;32;39340;-78
2023/06/13 15:02:01;;;;;;;5.72;2.53;;;;;;;27.65;22.03;99309.84;7761586;32;39817;-79
2023/06/13 15:06:18;;;;;;;3.85;1.73;;;;;;;27.40;20.70;99309.81;7761183;32;38080;-78
2023/06/13 15:10:34;;;;;;;3.05;1.80;;;;;;;27.68;20.96;99297.84;7763160;32;38384;-78
2023/06/13 15:14:51;;;;;;;3.85;1.90;;;;;;;27.73;21.70;99291.84;7760494;32;39094;-79
2023/06/13 15:19:07;;;;;;;2.53;1.58;;;;;;;27.76;23.47;99290.22;7746848;32;39961;-78
2023/06/13 15:23:23;;;;;;;5.28;2.00;;;;;;;27.35;20.67;99285.84;7760868;32;38110;-77
2023/06/13 15:27:39;;;;;;;3.42;1.98;;;;;;;26.28;21.91;99293.78;7761461;32;37140;-78
2023/06/13 15:31:57;;;;;;;2.47;1.58;;;;;;;26.71;22.63;99297.59;7763187;32;39363;-78
2023/06/13 15:36:13;;;;;;;3.20;1.80;;;;;;;26.34;21.49;99295.81;7764338;32;40002;-78
2023/06/13 15:40:30;;;;;;;2.97;1.70;;;;;;;26.91;22.03;99289.69;7749725;32;37958;-78
2023/06/13 15:44:46;;;;;;;4.12;1.95;;;;;;;26.86;21.39;99292.06;7762769;32;37633;-78
2023/06/13 15:49:03;;;;;;;3.17;1.75;;;;;;;26.48;21.05;99294.28;7764333;32;39081;-78
2023/06/13 15:53:19;;;;;;;5.35;2.03;;;;;;;26.57;21.64;99295.50;7763361;32;39889;-79
2023/06/13 15:57:36;;;;;;;5.68;2.05;;;;;;;26.60;21.15;99294.72;7763821;32;38663;-78
2023/06/13 16:01:55;;;;;;;7.75;1.80;;;;;;;26.89;23.01;99296.84;7763845;32;37090;-78
2023/06/13 16:06:12;;;;;;;5.25;2.20;;;;;;;27.11;21.91;99286.53;7763465;32;39936;-79
2023/06/13 16:10:28;;;;;;;4.95;1.70;;;;;;;26.47;21.46;99307.44;7763698;32;40773;-78
2023/06/13 16:14:44;;;;;;;3.37;1.80;;;;;;;26.67;21.94;99309.97;7763350;32;38717;-78
2023/06/13 16:19:01;;;;;;;5.80;2.00;;;;;;;26.43;22.33;99313.00;7763704;32;37025;-78
2023/06/13 16:23:17;;;;;;;3.15;1.80;;;;;;;26.47;21.97;99318.62;7763481;32;39448;-78
2023/06/13 16:27:34;;;;;;;3.30;1.60;;;;;;;26.86;22.65;99318.03;7763524;32;39957;-78
2023/06/13 16:31:50;;;;;;;3.35;1.60;;;;;;;26.25;21.78;99317.72;7763256;32;37910;-78
2023/06/13 16:36:06;;;;;;;8.60;2.00;;;;;;;26.50;21.54;99322.63;7762846;32;37813;-78
2023/06/13 16:40:23;;;;;;;7.05;2.10;;;;;;;26.45;21.79;99325.81;7763144;32;39149;-78
2023/06/13 16:44:39;;;;;;;4.18;1.83;;;;;;;26.50;22.14;99317.84;7784640;32;40045;-78
2023/06/13 16:48:55;;;;;;;5.32;2.30;;;;;;;26.37;22.20;99319.34;7793684;32;38722;-78
2023/06/13 16:53:12;;;;;;;4.43;1.90;;;;;;;26.32;22.79;99330.91;7793914;32;37905;-79
2023/06/13 16:57:30;;;;;;;2.67;1.70;;;;;;;26.37;23.20;99330.53;7791319;32;39343;-78
2023/06/13 17:01:46;;;;;;;3.67;2.03;;;;;;;25.76;22.95;99330.87;7788102;32;40869;-78
2023/06/13 17:06:02;;;;;;;15.70;9.15;;;;;;;25.69;23.54;99333.59;7792330;32;37951;-78
2023/06/13 17:10:19;;;;;;;7.28;1.90;;;;;;;25.66;23.20;99334.38;7792318;32;36825;-82
2023/06/13 17:14:36;;;;;;;4.43;1.90;;;;;;;25.76;22.96;99333.66;7792477;32;39460;-80
2023/06/13 17:18:53;;;;;;;4.35;1.80;;;;;;;25.60;23.46;99338.72;7793165;32;40681;-78
2023/06/13 17:23:13;;;;;;;7.90;1.87;;;;;;;25.38;24.64;99338.50;7792902;32;38431;-78
2023/06/13 17:27:29;;;;;;;5.68;1.80;;;;;;;25.25;25.08;99335.19;7792833;32;37004;-78
2023/06/13 17:31:45;;;;;;;5.72;2.20;;;;;;;25.16;25.13;99336.63;7791797;32;39449;-76
2023/06/13 17:36:02;;;;;;;2.83;1.92;;;;;;;24.69;26.10;99341.66;7778547;32;40933;-78
2023/06/13 17:40:19;;;;;;;3.67;1.80;;;;;;;24.63;26.67;99343.97;7792316;32;38818;-78
2023/06/13 17:44:35;;;;;;;7.03;2.22;;;;;;;24.62;26.55;99347.13;7789822;32;37225;-83
2023/06/13 17:48:51;;;;;;;3.58;2.05;;;;;;;24.50;27.34;99342.56;7786133;32;40129;-84
2023/06/13 17:53:09;;;;;;;5.57;2.03;;;;;;;24.28;27.47;99358.94;7767399;32;40352;-77
2023/06/13 17:57:26;;;;;;;4.55;2.25;;;;;;;24.25;28.57;99362.50;7781690;32;37983;-78
2023/06/13 18:01:42;;;;;;;4.53;2.10;;;;;;;24.02;30.57;99358.94;7789031;32;37169;-77
2023/06/13 18:05:59;;;;;;;4.35;2.00;;;;;;;23.72;32.22;99367.97;7792686;32;39047;-77
2023/06/13 18:10:17;;;;;;;17.70;10.63;;;;;;;23.85;32.28;99365.81;7792158;32;40120;-77
2023/06/13 18:14:34;;;;;;;13.05;5.97;;;;;;;23.81;33.33;99362.97;7790221;32;37780;-77
2023/06/13 18:18:50;;;;;;;3.90;2.45;;;;;;;23.34;35.73;99375.22;7792894;32;37162;-78
2023/06/13 18:23:07;;;;;;;6.15;2.05;;;;;;;23.30;36.54;99364.03;7792899;32;40100;-78
2023/06/13 18:27:24;;;;;;;5.70;2.42;;;;;;;23.02;37.40;99365.00;7792855;32;40009;-79
2023/06/13 18:31:40;;;;;;;4.68;2.30;;;;;;;22.87;36.32;99380.62;7784002;32;37969;-79
2023/06/13 18:35:57;;;;;;;3.58;2.03;;;;;;;22.74;36.98;99387.47;7781445;32;37750;-80
2023/06/13 18:40:15;;;;;;;3.50;2.12;;;;;;;22.74;36.58;99393.03;7788421;32;39907;-79
2023/06/13 18:44:32;;;;;;;3.78;2.45;;;;;;;22.55;37.21;99387.44;7783006;32;39580;-79
2023/06/13 18:48:49;;;;;;;5.90;2.62;;;;;;;22.26;38.11;99392.28;7780229;32;37974;-83
2023/06/13 18:53:07;;;;;;;8.52;2.50;;;;;;;21.96;39.13;99397.53;7789757;32;37066;-81
2023/06/13 18:57:24;;;;;;;9.98;2.60;;;;;;;22.07;38.44;99404.94;7792297;32;39450;-82
2023/06/13 19:01:41;;;;;;;7.68;2.47;;;;;;;21.70;39.64;99410.72;7787781;32;40820;-81
2023/06/13 19:05:57;;;;;;;9.20;2.72;;;;;;;21.56;39.99;99418.69;7806249;32;38680;-82
2023/06/13 19:10:14;;;;;;;4.35;2.35;;;;;;;21.25;40.96;99422.94;7779750;32;37260;-80
2023/06/13 19:14:31;;;;;;;9.95;2.87;;;;;;;21.22;41.31;99420.88;7792238;32;39380;-81
2023/06/13 19:18:47;;;;;;;6.20;2.58;;;;;;;21.20;41.33;99420.44;7797108;32;39954;-82
2023/06/13 19:23:04;;;;;;;4.28;2.10;;;;;;;20.82;41.96;99418.91;7787135;32;37866;-80
2023/06/13 19:27:21;;;;;;;3.08;1.95;;;;;;;20.71;41.77;99423.31;7778594;32;37881;-81
2023/06/13 19:31:38;;;;;;;4.43;2.30;;;;;;;20.34;43.15;99429.66;7795381;32;40311;-81
2023/06/13 19:35:58;;;;;;;4.72;2.25;;;;;;;20.18;43.25;99432.31;7791708;32;40001;-79
2023/06/13 19:40:16;;;;;;;5.50;2.40;;;;;;;20.15;42.91;99426.69;7789909;32;38125;-79
2023/06/13 19:44:36;;;;;;;6.05;2.12;;;;;;;20.01;42.30;99438.06;7764651;32;37941;-78
2023/06/13 19:48:56;;;;;;;5.97;2.35;;;;;;;19.56;44.15;99436.06;7764458;32;39503;-78
2023/06/13 19:53:13;;;;;;;3.95;2.30;;;;;;;19.68;43.69;99425.06;7771369;32;40050;-79
2023/06/13 19:57:31;;;;;;;3.53;2.25;;;;;;;19.63;43.92;99422.53;7791544;32;37878;-80
2023/06/13 20:01:47;;;;;;;4.93;2.45;;;;;;;19.48;44.22;99429.50;7791347;32;38701;-86
2023/06/13 20:06:05;;;;;;;4.32;2.50;;;;;;;19.36;44.08;99430.25;7791144;32;39393;-84
2023/06/13 20:10:24;;;;;;;4.37;2.37;;;;;;;19.51;43.30;99428.81;7777141;32;39443;-86
2023/06/13 20:14:41;;;;;;;3.72;2.12;;;;;;;19.14;44.25;99423.13;7790958;32;37854;-87